Time;durP1;ratioP1;P1;durP2;ratioP2;P2;SDS_P1;SDS_P2;PMS_P1;PMS_P2;Temp;Humidity;BMP_temperature;BMP_pressure;BME280_temperature;BME280_humidity;BME280_pressure;Samples;Min_cycle;Max_cycle;Signal;HPM_P1;HPM_P2
2021/11/20 00:01:48;;;;;;;;;;;16.10;40.80;;;;;;8362863;28;19924;-48
2021/11/20 00:05:50;;;;;;;;;;;16.20;40.80;;;;;;8362112;28;19913;-48
2021/11/20 00:09:51;;;;;;;;;;;16.10;40.70;;;;;;8362719;28;20396;-51
2021/11/20 00:13:52;;;;;;;;;;;16.20;40.80;;;;;;8362377;28;20035;-48
2021/11/20 00:17:52;;;;;;;;;;;16.20;40.80;;;;;;8361884;28;19970;-49
2021/11/20 00:21:55;;;;;;;;;;;16.10;40.70;;;;;;8362804;28;20395;-49
2021/11/20 00:25:57;;;;;;;;;;;16.10;40.80;;;;;;8362026;28;19921;-48
2021/11/20 00:30:03;;;;;;;;;;;16.20;40.80;;;;;;8361668;28;20282;-48
2021/11/20 00:34:04;;;;;;;;;;;16.10;40.80;;;;;;8362337;28;19932;-48
2021/11/20 00:38:05;;;;;;;;;;;16.10;40.80;;;;;;8362141;28;19923;-48
2021/11/20 00:42:07;;;;;;;;;;;16.10;40.80;;;;;;8361892;28;19917;-50
2021/11/20 00:46:08;;;;;;;;;;;16.10;40.80;;;;;;8368141;28;19924;-49
2021/11/20 00:50:09;;;;;;;;;;;16.10;40.90;;;;;;8367849;28;19920;-48
2021/11/20 00:54:10;;;;;;;;;;;16.10;40.90;;;;;;8367134;28;19925;-48
2021/11/20 00:58:10;;;;;;;;;;;16.10;40.90;;;;;;8367759;28;19927;-48
2021/11/20 01:02:11;;;;;;;;;;;16.00;40.90;;;;;;8367720;28;19956;-51
2021/11/20 01:06:12;;;;;;;;;;;16.00;40.80;;;;;;8366875;28;20346;-48
2021/11/20 01:10:13;;;;;;;;;;;16.00;40.90;;;;;;8367226;28;19924;-48
2021/11/20 01:14:15;;;;;;;;;;;16.00;40.90;;;;;;8366760;28;19921;-48
2021/11/20 01:18:17;;;;;;;;;;;16.00;40.90;;;;;;8366411;28;19921;-48
2021/11/20 01:22:19;;;;;;;;;;;16.00;40.90;;;;;;8367138;28;19999;-48
2021/11/20 01:26:21;;;;;;;;;;;16.00;40.90;;;;;;8366456;28;19917;-52
2021/11/20 01:30:22;;;;;;;;;;;16.00;41.40;;;;;;8365955;28;19951;-48
2021/11/20 01:34:23;;;;;;;;;;;16.00;40.90;;;;;;8366346;28;19991;-48
2021/11/20 01:38:24;;;;;;;;;;;16.00;40.90;;;;;;8366294;28;19921;-48
2021/11/20 01:42:29;;;;;;;;;;;16.00;40.90;;;;;;8365937;28;19917;-49
2021/11/20 01:46:30;;;;;;;;;;;16.00;40.90;;;;;;8366147;28;19924;-47
2021/11/20 01:50:31;;;;;;;;;;;16.00;40.90;;;;;;8365780;28;19988;-48
2021/11/20 01:54:32;;;;;;;;;;;16.00;40.90;;;;;;8364586;28;19929;-47
2021/11/20 01:58:35;;;;;;;;;;;16.00;41.00;;;;;;8365556;28;19979;-48
2021/11/20 02:02:42;;;;;;;;;;;16.00;40.90;;;;;;8350492;28;19917;-48
2021/11/20 02:06:48;;;;;;;;;;;16.00;40.80;;;;;;8360094;28;19921;-48
2021/11/20 02:10:51;;;;;;;;;;;16.00;40.80;;;;;;8365190;28;19916;-48
2021/11/20 02:14:51;;;;;;;;;;;16.00;40.80;;;;;;8364644;28;19933;-49
2021/11/20 02:18:55;;;;;;;;;;;16.10;40.80;;;;;;8364996;28;19923;-48
2021/11/20 02:22:55;;;;;;;;;;;16.10;40.70;;;;;;8365169;28;19924;-48
2021/11/20 02:26:55;;;;;;;;;;;16.10;40.70;;;;;;8364368;28;19921;-48
2021/11/20 02:30:58;;;;;;;;;;;16.10;40.70;;;;;;8364618;28;19940;-48
2021/11/20 02:34:59;;;;;;;;;;;16.10;40.70;;;;;;8364483;28;19927;-48
2021/11/20 02:39:02;;;;;;;;;;;16.10;40.60;;;;;;8363880;28;20374;-48
2021/11/20 02:43:04;;;;;;;;;;;16.10;40.70;;;;;;8364404;28;20392;-49
2021/11/20 02:47:07;;;;;;;;;;;16.00;40.60;;;;;;8364213;28;19959;-49
2021/11/20 02:51:09;;;;;;;;;;;16.10;40.70;;;;;;8363710;28;19921;-48
2021/11/20 02:55:10;;;;;;;;;;;16.00;40.60;;;;;;8363555;28;19925;-48
2021/11/20 02:59:10;;;;;;;;;;;16.00;40.70;;;;;;8363775;28;20298;-48
2021/11/20 03:03:11;;;;;;;;;;;16.00;40.70;;;;;;8363491;28;20000;-48
2021/11/20 03:07:12;;;;;;;;;;;16.00;40.70;;;;;;8362975;28;19936;-49
2021/11/20 03:11:13;;;;;;;;;;;16.00;40.70;;;;;;8363445;28;19921;-48
2021/11/20 03:15:14;;;;;;;;;;;16.00;40.70;;;;;;8362870;28;19931;-48
2021/11/20 03:19:15;;;;;;;;;;;16.00;40.70;;;;;;8363518;28;20366;-48
2021/11/20 03:23:24;;;;;;;;;;;16.00;40.80;;;;;;8363469;28;19913;-48
2021/11/20 03:27:24;;;;;;;;;;;15.90;40.70;;;;;;8362648;28;19940;-49
2021/11/20 03:31:25;;;;;;;;;;;15.90;40.70;;;;;;8363056;28;20011;-48
2021/11/20 03:35:25;;;;;;;;;;;15.90;40.70;;;;;;8362841;28;19931;-48
2021/11/20 03:39:26;;;;;;;;;;;16.00;40.80;;;;;;8362434;28;19917;-48
2021/11/20 03:43:26;;;;;;;;;;;15.90;40.70;;;;;;8363176;28;19917;-47
2021/11/20 03:47:27;;;;;;;;;;;15.90;40.70;;;;;;8362902;28;19928;-48
2021/11/20 03:51:28;;;;;;;;;;;15.90;40.70;;;;;;8362717;28;19917;-48
2021/11/20 03:55:33;;;;;;;;;;;15.90;40.70;;;;;;8362477;28;19986;-48
2021/11/20 03:59:33;;;;;;;;;;;15.90;40.60;;;;;;8362131;28;19917;-48
2021/11/20 04:03:34;;;;;;;;;;;15.90;40.70;;;;;;8362594;28;19912;-50
2021/11/20 04:07:35;;;;;;;;;;;15.90;40.60;;;;;;8362709;28;19924;-51
2021/11/20 04:11:36;;;;;;;;;;;15.90;40.70;;;;;;8362149;28;20366;-48
2021/11/20 04:15:36;;;;;;;;;;;15.90;40.60;;;;;;8362142;28;19932;-51
2021/11/20 04:19:37;;;;;;;;;;;15.90;40.60;;;;;;8366270;28;19963;-51
2021/11/20 04:23:37;;;;;;;;;;;15.90;40.60;;;;;;8368398;28;19991;-49
2021/11/20 04:27:38;;;;;;;;;;;16.00;40.60;;;;;;8366859;28;19917;-49
2021/11/20 04:31:39;;;;;;;;;;;16.00;40.50;;;;;;8368521;28;19921;-48
2021/11/20 04:35:39;;;;;;;;;;;16.00;40.50;;;;;;8367738;28;19932;-49
2021/11/20 04:39:40;;;;;;;;;;;16.00;40.40;;;;;;8368099;28;19948;-49
2021/11/20 04:43:41;;;;;;;;;;;16.10;40.50;;;;;;8368415;28;20373;-47
2021/11/20 04:47:42;;;;;;;;;;;16.10;40.50;;;;;;8367333;28;19931;-49
2021/11/20 04:51:42;;;;;;;;;;;16.10;40.50;;;;;;8367932;28;19963;-48
2021/11/20 04:55:43;;;;;;;;;;;16.10;40.50;;;;;;8367321;28;19925;-50
2021/11/20 04:59:43;;;;;;;;;;;16.10;40.40;;;;;;8366927;28;19919;-49
2021/11/20 05:03:44;;;;;;;;;;;16.10;40.40;;;;;;8367601;28;20437;-48
2021/11/20 05:07:44;;;;;;;;;;;16.10;40.40;;;;;;8344351;28;20388;-49
2021/11/20 05:11:45;;;;;;;;;;;16.00;40.40;;;;;;8351217;28;19917;-48
2021/11/20 05:15:47;;;;;;;;;;;16.00;40.40;;;;;;8367108;28;20274;-49
2021/11/20 05:19:47;;;;;;;;;;;16.00;40.40;;;;;;8367247;28;19912;-48
2021/11/20 05:23:48;;;;;;;;;;;16.00;40.50;;;;;;8367745;28;19916;-48
2021/11/20 05:27:53;;;;;;;;;;;16.00;40.50;;;;;;8366530;28;19928;-48
2021/11/20 05:31:53;;;;;;;;;;;16.00;40.50;;;;;;8365407;28;19920;-49
2021/11/20 05:35:54;;;;;;;;;;;16.00;40.50;;;;;;8365919;28;20307;-48
2021/11/20 05:39:54;;;;;;;;;;;16.00;40.50;;;;;;8366302;28;19939;-48
2021/11/20 05:43:55;;;;;;;;;;;16.00;40.50;;;;;;8366213;28;19920;-48
2021/11/20 05:47:55;;;;;;;;;;;16.00;41.00;;;;;;8364135;28;19917;-48
2021/11/20 05:51:56;;;;;;;;;;;16.00;40.50;;;;;;8365834;28;19983;-48
2021/11/20 05:55:57;;;;;;;;;;;16.00;40.60;;;;;;8366098;28;19925;-48
2021/11/20 05:59:58;;;;;;;;;;;16.00;40.60;;;;;;8365211;28;19913;-48
2021/11/20 06:03:58;;;;;;;;;;;15.90;40.50;;;;;;8365667;28;19963;-48
2021/11/20 06:07:59;;;;;;;;;;;15.90;40.50;;;;;;8365424;28;20050;-48
2021/11/20 06:12:00;;;;;;;;;;;15.90;40.50;;;;;;8364851;28;19964;-49
2021/11/20 06:16:00;;;;;;;;;;;15.90;40.50;;;;;;8365309;28;19925;-50
2021/11/20 06:20:02;;;;;;;;;;;15.90;40.40;;;;;;8364797;28;19920;-49
2021/11/20 06:24:02;;;;;;;;;;;15.90;40.50;;;;;;8363784;28;19921;-52
2021/11/20 06:28:03;;;;;;;;;;;15.90;40.50;;;;;;8362885;28;20008;-51
2021/11/20 06:32:04;;;;;;;;;;;15.90;40.50;;;;;;8364063;28;19916;-49
2021/11/20 06:36:05;;;;;;;;;;;15.90;40.50;;;;;;8363336;28;20425;-48
2021/11/20 06:40:09;;;;;;;;;;;15.90;40.50;;;;;;8364339;28;20307;-49
2021/11/20 06:44:10;;;;;;;;;;;15.90;40.50;;;;;;8364110;28;20286;-48
2021/11/20 06:48:11;;;;;;;;;;;15.90;40.50;;;;;;8363729;28;19953;-48
2021/11/20 06:52:11;;;;;;;;;;;15.90;40.50;;;;;;8364172;28;19917;-48
2021/11/20 06:56:25;;;;;;;;;;;15.90;40.50;;;;;;8363673;28;19929;-49
2021/11/20 07:00:27;;;;;;;;;;;15.90;40.50;;;;;;8363562;28;19967;-48
2021/11/20 07:04:29;;;;;;;;;;;15.90;40.50;;;;;;8363892;28;19960;-48
2021/11/20 07:08:30;;;;;;;;;;;15.90;40.50;;;;;;8363711;28;20420;-49
2021/11/20 07:12:31;;;;;;;;;;;15.90;40.50;;;;;;8363087;28;19916;-49
2021/11/20 07:16:32;;;;;;;;;;;15.90;40.50;;;;;;8363498;28;19927;-48
2021/11/20 07:20:35;;;;;;;;;;;15.90;40.40;;;;;;8362860;28;19916;-46
2021/11/20 07:24:35;;;;;;;;;;;15.90;40.50;;;;;;8363179;28;19913;-48
2021/11/20 07:28:37;;;;;;;;;;;15.90;40.50;;;;;;8362753;28;20306;-48
2021/11/20 07:32:37;;;;;;;;;;;15.90;40.50;;;;;;8362036;28;19979;-48
2021/11/20 07:36:38;;;;;;;;;;;15.90;40.50;;;;;;8362474;28;19921;-48
2021/11/20 07:40:40;;;;;;;;;;;15.90;40.50;;;;;;8362550;28;20472;-48
2021/11/20 07:44:40;;;;;;;;;;;15.80;40.40;;;;;;8361997;28;19944;-48
2021/11/20 07:48:41;;;;;;;;;;;15.90;40.50;;;;;;8362460;28;19917;-48
2021/11/20 07:52:41;;;;;;;;;;;15.80;40.40;;;;;;8363337;28;20012;-48
2021/11/20 07:56:42;;;;;;;;;;;15.80;40.50;;;;;;8368254;28;20004;-49
2021/11/20 08:00:43;;;;;;;;;;;15.80;40.50;;;;;;8369365;28;19924;-51
2021/11/20 08:04:43;;;;;;;;;;;15.80;40.40;;;;;;8369335;28;20380;-49
2021/11/20 08:08:44;;;;;;;;;;;15.90;40.50;;;;;;8367896;28;19966;-49
2021/11/20 08:12:44;;;;;;;;;;;15.90;40.50;;;;;;8368900;28;19916;-50
2021/11/20 08:16:45;;;;;;;;;;;15.90;40.40;;;;;;8369059;28;20305;-48
2021/11/20 08:20:46;;;;;;;;;;;15.90;40.40;;;;;;8368699;28;19923;-48
2021/11/20 08:24:47;;;;;;;;;;;15.80;40.40;;;;;;8367306;28;19920;-50
2021/11/20 08:28:47;;;;;;;;;;;15.90;40.50;;;;;;8368494;28;19970;-49
2021/11/20 08:32:49;;;;;;;;;;;15.90;40.40;;;;;;8367981;28;20004;-49
2021/11/20 08:36:49;;;;;;;;;;;15.90;40.40;;;;;;8368067;28;19967;-48
2021/11/20 08:40:51;;;;;;;;;;;15.90;40.40;;;;;;8368459;28;20338;-48
2021/11/20 08:44:52;;;;;;;;;;;15.80;40.40;;;;;;8367607;28;19974;-49
2021/11/20 08:48:52;;;;;;;;;;;15.80;40.40;;;;;;8367841;28;20378;-48
2021/11/20 08:52:53;;;;;;;;;;;15.90;40.40;;;;;;8367699;28;20319;-49
2021/11/20 08:56:55;;;;;;;;;;;15.90;40.40;;;;;;8367043;28;19932;-51
2021/11/20 09:00:55;;;;;;;;;;;15.90;40.40;;;;;;8367579;28;20007;-49
2021/11/20 09:05:02;;;;;;;;;;;15.90;40.40;;;;;;8367161;28;19924;-48
2021/11/20 09:09:07;;;;;;;;;;;15.90;40.30;;;;;;8366673;28;19987;-48
2021/11/20 09:13:12;;;;;;;;;;;15.90;40.40;;;;;;8366970;28;19955;-48
2021/11/20 09:17:13;;;;;;;;;;;15.80;40.30;;;;;;8366876;28;19931;-49
2021/11/20 09:21:14;;;;;;;;;;;15.90;40.40;;;;;;8366457;28;20431;-48
2021/11/20 09:25:15;;;;;;;;;;;15.80;40.30;;;;;;8366677;28;19969;-51
2021/11/20 09:29:17;;;;;;;;;;;15.80;40.40;;;;;;8366768;28;19956;-47
2021/11/20 09:33:19;;;;;;;;;;;15.90;40.40;;;;;;8365986;28;19916;-46
2021/11/20 09:37:19;;;;;;;;;;;15.80;40.30;;;;;;8366427;28;20038;-47
2021/11/20 09:41:24;;;;;;;;;;;15.80;40.30;;;;;;8366558;28;19917;-47
2021/11/20 09:45:34;;;;;;;;;;;15.80;40.30;;;;;;8365642;28;19924;-48
2021/11/20 09:49:36;;;;;;;;;;;15.80;40.40;;;;;;8365858;28;20277;-49
2021/11/20 09:53:36;;;;;;;;;;;15.90;40.40;;;;;;8365317;28;20341;-50
2021/11/20 09:57:40;;;;;;;;;;;15.90;40.30;;;;;;8366090;28;19931;-49
2021/11/20 10:02:01;;;;;;;;;;;15.80;40.30;;;;;;8365725;28;19913;-49
2021/11/20 10:06:01;;;;;;;;;;;15.80;40.30;;;;;;8333824;28;19959;-47
2021/11/20 10:10:14;;;;;;;;;;;15.80;40.30;;;;;;8365350;28;20385;-50
2021/11/20 10:14:35;;;;;;;;;;;15.90;40.40;;;;;;8364947;28;19925;-48
2021/11/20 10:18:48;;;;;;;;;;;15.90;40.30;;;;;;8359995;28;19916;-48
2021/11/20 10:22:54;;;;;;;;;;;15.90;40.30;;;;;;8364759;28;19968;-48
2021/11/20 10:27:01;;;;;;;;;;;15.90;40.40;;;;;;8364396;28;19916;-47
2021/11/20 10:31:08;;;;;;;;;;;15.90;40.30;;;;;;8365188;28;19912;-47
2021/11/20 10:35:27;;;;;;;;;;;15.90;40.40;;;;;;8364578;28;20467;-48
2021/11/20 10:39:37;;;;;;;;;;;15.90;40.30;;;;;;8363896;28;20027;-48
2021/11/20 10:43:43;;;;;;;;;;;15.90;40.30;;;;;;8364358;28;20322;-47
2021/11/20 10:47:54;;;;;;;;;;;15.90;40.30;;;;;;8363683;28;19963;-47
2021/11/20 10:51:55;;;;;;;;;;;15.90;40.40;;;;;;8364069;28;19919;-48
2021/11/20 10:56:14;;;;;;;;;;;15.90;40.40;;;;;;8330995;28;20370;-48
2021/11/20 11:00:20;;;;;;;;;;;15.90;40.30;;;;;;8357693;28;19924;-48
2021/11/20 11:04:48;;;;;;;;;;;15.80;40.30;;;;;;8363927;28;20382;-48
2021/11/20 11:08:54;;;;;;;;;;;15.80;40.30;;;;;;8363159;28;19940;-48
2021/11/20 11:13:09;;;;;;;;;;;15.90;40.40;;;;;;8344733;28;19984;-48
2021/11/20 11:17:21;;;;;;;;;;;15.90;40.30;;;;;;8367054;28;19921;-50
2021/11/20 11:21:32;;;;;;;;;;;16.00;40.30;;;;;;8363056;28;19973;-47
2021/11/20 11:25:35;;;;;;;;;;;16.00;40.20;;;;;;8363221;28;19967;-50
2021/11/20 11:29:36;;;;;;;;;;;16.00;40.20;;;;;;8361711;28;19975;-48
2021/11/20 11:33:42;;;;;;;;;;;16.10;40.20;;;;;;8363262;28;19925;-48
2021/11/20 11:38:03;;;;;;;;;;;16.10;40.20;;;;;;8361855;28;19917;-47
2021/11/20 11:42:14;;;;;;;;;;;16.10;40.30;;;;;;8362872;28;19912;-48
2021/11/20 11:46:44;;;;;;;;;;;16.10;40.30;;;;;;8362958;28;19916;-48
2021/11/20 11:51:03;;;;;;;;;;;16.10;40.20;;;;;;8310093;28;20332;-48
2021/11/20 11:55:22;;;;;;;;;;;16.20;40.20;;;;;;8352603;28;19975;-47
2021/11/20 11:59:25;;;;;;;;;;;16.10;40.10;;;;;;8362580;28;20389;-51
2021/11/20 12:03:26;;;;;;;;;;;16.10;40.10;;;;;;8362300;28;19920;-51
2021/11/20 12:07:45;;;;;;;;;;;16.10;40.10;;;;;;8362716;28;20370;-47
2021/11/20 12:11:46;;;;;;;;;;;16.10;40.10;;;;;;8362414;28;19920;-47
2021/11/20 12:15:50;;;;;;;;;;;16.10;40.10;;;;;;8362315;28;19925;-48
2021/11/20 12:20:36;;;;;;;;;;;16.10;40.10;;;;;;8362506;28;19970;-48
2021/11/20 12:24:42;;;;;;;;;;;16.10;40.10;;;;;;8292755;28;20505;-51
2021/11/20 12:28:55;;;;;;;;;;;16.10;40.10;;;;;;8321289;28;19925;-49
2021/11/20 12:32:58;;;;;;;;;;;16.10;40.60;;;;;;8361813;28;20359;-48
2021/11/20 12:37:17;;;;;;;;;;;16.10;40.10;;;;;;8362319;28;19921;-47
2021/11/20 12:41:23;;;;;;;;;;;16.10;40.10;;;;;;8366976;28;19959;-48
2021/11/20 12:45:39;;;;;;;;;;;16.10;40.10;;;;;;8367455;28;19940;-50
2021/11/20 12:49:58;;;;;;;;;;;16.10;40.20;;;;;;8367748;28;19916;-52
2021/11/20 12:54:01;;;;;;;;;;;16.10;40.10;;;;;;8367180;28;19931;-50
2021/11/20 12:58:25;;;;;;;;;;;16.10;40.20;;;;;;8368111;28;20377;-51
2021/11/20 13:02:27;;;;;;;;;;;16.10;40.20;;;;;;8367736;28;19924;-51
2021/11/20 13:06:29;;;;;;;;;;;16.10;40.30;;;;;;8366952;28;19925;-47
2021/11/20 13:10:39;;;;;;;;;;;16.10;40.20;;;;;;8367274;28;19917;-48
2021/11/20 13:14:42;;;;;;;;;;;16.10;40.20;;;;;;8366737;28;19925;-47
2021/11/20 13:18:55;;;;;;;;;;;16.10;40.20;;;;;;8367019;28;19920;-47
2021/11/20 13:23:02;;;;;;;;;;;16.10;40.20;;;;;;8366861;28;19912;-47
2021/11/20 13:27:11;;;;;;;;;;;16.10;40.20;;;;;;8366651;28;19917;-48
2021/11/20 13:31:12;;;;;;;;;;;16.00;40.20;;;;;;8366514;28;19975;-47
2021/11/20 13:35:13;;;;;;;;;;;16.00;40.20;;;;;;8366174;28;19925;-47
2021/11/20 13:39:13;;;;;;;;;;;16.00;40.20;;;;;;8366039;28;19921;-48
2021/11/20 13:43:16;;;;;;;;;;;16.00;40.30;;;;;;8366384;28;19913;-48
2021/11/20 13:47:17;;;;;;;;;;;16.10;40.30;;;;;;8366428;28;19924;-48
2021/11/20 13:51:19;;;;;;;;;;;16.00;40.30;;;;;;8364476;28;19960;-48
2021/11/20 13:55:20;;;;;;;;;;;16.00;40.30;;;;;;8365675;28;19929;-48
2021/11/20 13:59:20;;;;;;;;;;;16.00;40.30;;;;;;8365698;28;20388;-47
2021/11/20 14:03:22;;;;;;;;;;;16.00;40.30;;;;;;8365091;28;19917;-47
2021/11/20 14:07:27;;;;;;;;;;;16.00;40.30;;;;;;8365638;28;20007;-47
2021/11/20 14:11:28;;;;;;;;;;;16.00;40.30;;;;;;8356051;28;19928;-50
2021/11/20 14:15:28;;;;;;;;;;;16.00;40.30;;;;;;8349952;28;19924;-48
2021/11/20 14:19:29;;;;;;;;;;;16.00;40.30;;;;;;8365104;28;19946;-47
2021/11/20 14:23:37;;;;;;;;;;;16.00;40.30;;;;;;8364891;28;19920;-48
2021/11/20 14:27:37;;;;;;;;;;;16.00;40.30;;;;;;8365088;28;20289;-48
2021/11/20 14:31:44;;;;;;;;;;;16.00;40.30;;;;;;8364700;28;20005;-48
2021/11/20 14:35:56;;;;;;;;;;;16.00;40.30;;;;;;8364044;28;20336;-47
2021/11/20 14:40:00;;;;;;;;;;;16.00;40.30;;;;;;8364509;28;19928;-47
2021/11/20 14:44:02;;;;;;;;;;;16.00;40.30;;;;;;8364212;28;19917;-48
2021/11/20 14:48:03;;;;;;;;;;;16.00;40.30;;;;;;8363838;28;20385;-47
2021/11/20 14:52:17;;;;;;;;;;;16.00;40.30;;;;;;8364379;28;20262;-48
2021/11/20 14:56:18;;;;;;;;;;;16.00;40.90;;;;;;8363588;28;19924;-47
2021/11/20 15:00:18;;;;;;;;;;;16.00;40.30;;;;;;8363437;28;19917;-48
2021/11/20 15:04:19;;;;;;;;;;;16.00;40.30;;;;;;8363737;28;19955;-47
2021/11/20 15:08:19;;;;;;;;;;;16.00;40.30;;;;;;8363872;28;19913;-47
2021/11/20 15:12:20;;;;;;;;;;;16.00;40.30;;;;;;8362941;28;19917;-48
2021/11/20 15:16:20;;;;;;;;;;;16.00;40.30;;;;;;8363378;28;19932;-47
2021/11/20 15:20:21;;;;;;;;;;;16.00;40.30;;;;;;8363539;28;19924;-51
2021/11/20 15:24:22;;;;;;;;;;;16.00;40.30;;;;;;8362754;28;19924;-48
2021/11/20 15:28:23;;;;;;;;;;;16.00;40.30;;;;;;8363681;28;20275;-48
2021/11/20 15:32:24;;;;;;;;;;;16.00;40.40;;;;;;8363592;28;20011;-48
2021/11/20 15:36:24;;;;;;;;;;;16.00;40.30;;;;;;8362522;28;19929;-47
2021/11/20 15:40:24;;;;;;;;;;;16.00;40.30;;;;;;8361699;28;19974;-47
2021/11/20 15:44:25;;;;;;;;;;;15.90;40.30;;;;;;8362946;28;19917;-47
2021/11/20 15:48:26;;;;;;;;;;;16.00;40.40;;;;;;8362571;28;19913;-48
2021/11/20 15:52:26;;;;;;;;;;;16.00;40.30;;;;;;8363028;28;20362;-48
2021/11/20 15:56:27;;;;;;;;;;;15.90;40.30;;;;;;8362557;28;20378;-48
2021/11/20 16:00:27;;;;;;;;;;;15.90;40.30;;;;;;8361930;28;20279;-48
2021/11/20 16:04:28;;;;;;;;;;;15.90;40.30;;;;;;8362524;28;19927;-50
2021/11/20 16:08:28;;;;;;;;;;;15.90;40.30;;;;;;8362820;28;19920;-50
2021/11/20 16:12:29;;;;;;;;;;;15.90;40.30;;;;;;8362112;28;19924;-48
2021/11/20 16:16:32;;;;;;;;;;;16.00;40.30;;;;;;8367849;28;19970;-49
2021/11/20 16:20:35;;;;;;;;;;;15.90;40.30;;;;;;8367782;28;21191;-47
2021/11/20 16:24:35;;;;;;;;;;;15.90;40.30;;;;;;8369282;28;20255;-48
2021/11/20 16:28:36;;;;;;;;;;;15.90;40.30;;;;;;8368687;28;19913;-48
2021/11/20 16:32:37;;;;;;;;;;;15.90;40.30;;;;;;8368047;28;20393;-52
2021/11/20 16:36:37;;;;;;;;;;;15.90;40.30;;;;;;8368170;28;19929;-48
2021/11/20 16:40:38;;;;;;;;;;;15.90;40.30;;;;;;8367950;28;20294;-47
2021/11/20 16:44:38;;;;;;;;;;;15.90;40.30;;;;;;8367482;28;19924;-51
2021/11/20 16:48:39;;;;;;;;;;;15.90;40.30;;;;;;8367605;28;19975;-49
2021/11/20 16:52:40;;;;;;;;;;;15.90;40.30;;;;;;8367628;28;19995;-52
2021/11/20 16:56:41;;;;;;;;;;;15.90;40.30;;;;;;8367124;28;19928;-48
2021/11/20 17:00:42;;;;;;;;;;;15.90;40.30;;;;;;8367294;28;20012;-49
2021/11/20 17:04:42;;;;;;;;;;;15.90;40.30;;;;;;8365555;28;19913;-49
2021/11/20 17:08:44;;;;;;;;;;;15.90;40.30;;;;;;8366979;28;19923;-46
2021/11/20 17:12:44;;;;;;;;;;;15.90;40.30;;;;;;8367024;28;20413;-49
2021/11/20 17:16:45;;;;;;;;;;;15.90;40.30;;;;;;8366980;28;19932;-46
2021/11/20 17:20:45;;;;;;;;;;;15.90;40.30;;;;;;8366603;28;19952;-49
2021/11/20 17:24:46;;;;;;;;;;;15.90;40.30;;;;;;8366279;28;19920;-47
2021/11/20 17:28:46;;;;;;;;;;;15.90;40.30;;;;;;8366364;28;19920;-46
2021/11/20 17:32:47;;;;;;;;;;;15.90;40.30;;;;;;8366123;28;19992;-45
2021/11/20 17:36:48;;;;;;;;;;;15.90;40.30;;;;;;8366332;28;19991;-48
2021/11/20 17:40:48;;;;;;;;;;;15.90;40.30;;;;;;8366316;28;19938;-47
2021/11/20 17:44:49;;;;;;;;;;;15.90;40.30;;;;;;8365867;28;19913;-46
2021/11/20 17:48:50;;;;;;;;;;;15.90;40.30;;;;;;8366694;28;19940;-46
2021/11/20 17:52:50;;;;;;;;;;;15.90;40.30;;;;;;8365832;28;19924;-48
2021/11/20 17:56:50;;;;;;;;;;;15.90;40.30;;;;;;8365214;28;19940;-46
2021/11/20 18:00:52;;;;;;;;;;;15.90;40.30;;;;;;8365467;28;19921;-47
2021/11/20 18:04:53;;;;;;;;;;;15.90;40.30;;;;;;8365505;28;19913;-46
2021/11/20 18:08:53;;;;;;;;;;;15.80;40.30;;;;;;8365209;28;19936;-45
2021/11/20 18:12:54;;;;;;;;;;;15.90;40.30;;;;;;8365333;28;19923;-47
2021/11/20 18:16:54;;;;;;;;;;;15.90;40.30;;;;;;8365148;28;20031;-47
2021/11/20 18:20:55;;;;;;;;;;;15.90;40.30;;;;;;8364762;28;19920;-46
2021/11/20 18:24:55;;;;;;;;;;;15.80;40.30;;;;;;8365755;28;20337;-48
2021/11/20 18:28:56;;;;;;;;;;;15.80;40.30;;;;;;8331925;28;20367;-47
2021/11/20 18:32:57;;;;;;;;;;;15.90;40.30;;;;;;8356314;28;20007;-48
2021/11/20 18:36:57;;;;;;;;;;;15.90;40.30;;;;;;8364316;28;19990;-47
2021/11/20 18:40:59;;;;;;;;;;;15.80;40.20;;;;;;8364259;28;19917;-47
2021/11/20 18:44:59;;;;;;;;;;;15.90;40.30;;;;;;8364059;28;19966;-47
2021/11/20 18:49:00;;;;;;;;;;;15.90;40.30;;;;;;8364021;28;20279;-47
2021/11/20 18:53:00;;;;;;;;;;;15.90;40.30;;;;;;8364262;28;20355;-48
2021/11/20 18:57:01;;;;;;;;;;;15.80;40.20;;;;;;8363049;28;19932;-48
2021/11/20 19:01:03;;;;;;;;;;;15.80;40.30;;;;;;8363723;28;19936;-48
2021/11/20 19:05:04;;;;;;;;;;;15.90;40.30;;;;;;8363980;28;19921;-48
2021/11/20 19:09:04;;;;;;;;;;;15.80;40.30;;;;;;8363158;28;19939;-48
2021/11/20 19:13:05;;;;;;;;;;;15.80;40.20;;;;;;8363480;28;20357;-48
2021/11/20 19:17:05;;;;;;;;;;;15.90;40.30;;;;;;8363649;28;19931;-48
2021/11/20 19:21:06;;;;;;;;;;;15.80;40.20;;;;;;8363410;28;19917;-48
2021/11/20 19:25:07;;;;;;;;;;;15.90;40.30;;;;;;8363588;28;19919;-48
2021/11/20 19:29:10;;;;;;;;;;;15.80;40.20;;;;;;8363472;28;19924;-47
2021/11/20 19:33:11;;;;;;;;;;;15.80;40.20;;;;;;8362817;28;20336;-48
2021/11/20 19:37:11;;;;;;;;;;;15.80;40.20;;;;;;8363265;28;19929;-48
2021/11/20 19:41:13;;;;;;;;;;;15.80;40.30;;;;;;8362992;28;19913;-48
2021/11/20 19:45:16;;;;;;;;;;;15.90;40.30;;;;;;8362740;28;20341;-48
2021/11/20 19:49:16;;;;;;;;;;;15.90;40.30;;;;;;8364939;28;19940;-49
2021/11/20 19:53:17;;;;;;;;;;;15.80;40.30;;;;;;8369835;28;19948;-51
2021/11/20 19:57:17;;;;;;;;;;;15.80;40.20;;;;;;8368992;28;19925;-48
2021/11/20 20:01:19;;;;;;;;;;;15.90;40.30;;;;;;8369857;28;19939;-48
2021/11/20 20:05:20;;;;;;;;;;;15.80;40.30;;;;;;8369751;28;19924;-50
2021/11/20 20:09:21;;;;;;;;;;;15.80;40.20;;;;;;8349508;28;19917;-48
2021/11/20 20:13:24;;;;;;;;;;;15.80;40.30;;;;;;8358428;28;20538;-48
2021/11/20 20:17:24;;;;;;;;;;;15.80;40.30;;;;;;8368847;28;19928;-49
2021/11/20 20:21:25;;;;;;;;;;;15.80;40.30;;;;;;8368480;28;20286;-48
2021/11/20 20:25:26;;;;;;;;;;;15.80;40.30;;;;;;8369095;28;19913;-48
2021/11/20 20:29:26;;;;;;;;;;;15.80;40.20;;;;;;8368684;28;19923;-48
2021/11/20 20:33:27;;;;;;;;;;;15.80;40.30;;;;;;8367897;28;19924;-47
2021/11/20 20:37:27;;;;;;;;;;;15.80;40.30;;;;;;8368409;28;19925;-48
2021/11/20 20:41:28;;;;;;;;;;;15.80;40.30;;;;;;8368362;28;19921;-47
2021/11/20 20:45:28;;;;;;;;;;;15.80;40.20;;;;;;8367856;28;20438;-48
2021/11/20 20:49:29;;;;;;;;;;;15.80;40.20;;;;;;8367997;28;19917;-49
2021/11/20 20:53:30;;;;;;;;;;;15.80;40.20;;;;;;8367915;28;20381;-49
2021/11/20 20:57:30;;;;;;;;;;;15.80;40.30;;;;;;8367093;28;19986;-48
2021/11/20 21:01:31;;;;;;;;;;;15.80;40.30;;;;;;8367484;28;19913;-52
2021/11/20 21:05:32;;;;;;;;;;;15.80;40.20;;;;;;8367333;28;20361;-47
2021/11/20 21:09:32;;;;;;;;;;;15.80;40.20;;;;;;8367699;28;20321;-47
2021/11/20 21:13:33;;;;;;;;;;;15.80;40.20;;;;;;8367403;28;19924;-49
2021/11/20 21:17:33;;;;;;;;;;;15.70;40.20;;;;;;8366692;28;19964;-47
2021/11/20 21:25:54;;;;;;;;;;;15.80;40.20;;;;;;8367394;28;20285;-49
2021/11/20 21:29:55;;;;;;;;;;;15.80;40.30;;;;;;8366598;28;20187;-47
2021/11/20 21:33:55;;;;;;;;;;;15.80;40.30;;;;;;8366887;28;19982;-50
2021/11/20 21:37:56;;;;;;;;;;;15.70;40.20;;;;;;8366449;28;19917;-47
2021/11/20 21:41:56;;;;;;;;;;;15.70;40.20;;;;;;8366040;28;19917;-48
2021/11/20 21:45:57;;;;;;;;;;;15.80;40.30;;;;;;8366575;28;20420;-49
2021/11/20 21:49:57;;;;;;;;;;;15.80;40.20;;;;;;8366160;28;20365;-48
2021/11/20 21:53:58;;;;;;;;;;;15.80;40.20;;;;;;8365575;28;20370;-47
2021/11/20 21:57:59;;;;;;;;;;;15.80;40.20;;;;;;8366157;28;20390;-46
2021/11/20 22:02:00;;;;;;;;;;;15.90;40.10;;;;;;8365939;28;19913;-48
2021/11/20 22:06:00;;;;;;;;;;;15.80;40.10;;;;;;8365406;28;19917;-47
2021/11/20 22:10:02;;;;;;;;;;;15.90;40.10;;;;;;8365356;28;19917;-48
2021/11/20 22:14:02;;;;;;;;;;;15.90;40.00;;;;;;8364662;28;19948;-47
2021/11/20 22:18:05;;;;;;;;;;;15.90;40.10;;;;;;8364811;28;19928;-47
2021/11/20 22:22:09;;;;;;;;;;;15.90;40.10;;;;;;8365643;28;19917;-48
2021/11/20 22:26:10;;;;;;;;;;;15.90;40.10;;;;;;8365361;28;19916;-48
2021/11/20 22:30:10;;;;;;;;;;;15.80;40.00;;;;;;8364390;28;19917;-47
2021/11/20 22:34:11;;;;;;;;;;;15.80;40.00;;;;;;8364594;28;20018;-48
2021/11/20 22:38:11;;;;;;;;;;;15.80;40.00;;;;;;8364952;28;19921;-47
2021/11/20 22:42:12;;;;;;;;;;;15.90;40.20;;;;;;8364240;28;19917;-47
2021/11/20 22:46:13;;;;;;;;;;;15.80;40.10;;;;;;8364906;28;20285;-49
2021/11/20 22:50:14;;;;;;;;;;;15.80;40.10;;;;;;8364097;28;19925;-47
2021/11/20 22:54:14;;;;;;;;;;;15.80;40.20;;;;;;8363711;28;19983;-46
2021/11/20 22:58:15;;;;;;;;;;;15.80;40.20;;;;;;8364150;28;19925;-47
2021/11/20 23:02:16;;;;;;;;;;;15.80;40.20;;;;;;8373580;28;19917;-49
2021/11/20 23:06:17;;;;;;;;;;;15.80;40.20;;;;;;8363618;28;19952;-47
2021/11/20 23:10:17;;;;;;;;;;;15.80;40.20;;;;;;8362922;28;19924;-49
2021/11/20 23:14:20;;;;;;;;;;;15.80;40.20;;;;;;8363464;28;19920;-47
2021/11/20 23:18:21;;;;;;;;;;;15.80;40.20;;;;;;8363196;28;19917;-47
2021/11/20 23:22:21;;;;;;;;;;;15.80;40.30;;;;;;8363384;28;19945;-48
2021/11/20 23:26:22;;;;;;;;;;;15.80;40.30;;;;;;8363680;28;19913;-48
2021/11/20 23:30:22;;;;;;;;;;;15.70;40.20;;;;;;8362749;28;19955;-48
2021/11/20 23:34:23;;;;;;;;;;;15.70;40.20;;;;;;8363126;28;19971;-48